Terminal Aerodrome Forecast
Issued by NWS Green Bay, WI

Home | Current Version | Previous Version | Graphics & Text | Print | Product List | Glossary On
Versions: 1 2 3 4 5 6 7 8 9 10 11 12 13 14 15 16 17 18 19 20 21 22 23 24 25 26 27 28 29 30 31 32 33 34 35 36
551
FTUS43 KGRB 202328
TAFGRB
TAF
KGRB 202328Z 2100/2124 32007KT P6SM FEW070
     FM210600 VRB03KT P6SM FEW250
      TEMPO 2107/2111 2SM BR SCT003
     FM211500 23005KT P6SM SCT050
     FM212200 15012G16KT P6SM SCT040=

USA.gov is the U.S. government's official web portal to all federal, state and local government web resources and services.